Time,TemperatureF,DewpointF,PressureIn,WindDirection,WindDirectionDegrees,WindSpeedMPH,WindSpeedGustMPH,Humidity,HourlyPrecipIn,Conditions,Clouds,dailyrainin,SolarRadiationWatts/m^2,SoftwareType,DateUTC
2013-04-18 00:02:00,31.0,24.0,-100.00,SSW,202,4.0,6.0,74,0.00,,,0.02,1.000000,,2013-04-18 07:02:00,
2013-04-18 00:12:00,31.0,24.0,-100.00,SSW,202,4.0,6.0,74,0.00,,,0.02,1.000000,,2013-04-18 07:12:00,
2013-04-18 00:21:00,31.0,24.0,-100.00,SSW,202,4.0,6.0,74,0.00,,,0.02,1.000000,,2013-04-18 07:21:00,
2013-04-18 00:52:00,31.0,24.0,-100.00,SSW,201,5.0,8.0,75,0.00,,,0.02,1.000000,,2013-04-18 07:52:00,
2013-04-18 01:02:00,31.0,24.0,-100.00,SSW,201,5.0,8.0,75,0.00,,,0.02,1.000000,,2013-04-18 08:02:00,
2013-04-18 01:12:00,31.0,24.0,-100.00,SSW,201,5.0,8.0,75,0.00,,,0.02,1.000000,,2013-04-18 08:12:00,
2013-04-18 01:22:00,31.0,24.0,-100.00,SSW,201,5.0,8.0,75,0.00,,,0.02,1.000000,,2013-04-18 08:22:00,
2013-04-18 01:52:00,31.0,25.0,-100.00,SSW,201,6.0,10.0,78,0.00,,,0.02,1.000000,,2013-04-18 08:52:00,
2013-04-18 02:02:00,31.0,25.0,-100.00,SSW,201,6.0,10.0,78,0.00,,,0.02,1.000000,,2013-04-18 09:02:00,
2013-04-18 02:12:00,31.0,25.0,-100.00,SSW,201,6.0,10.0,78,0.00,,,0.02,1.000000,,2013-04-18 09:12:00,
2013-04-18 02:22:00,31.0,25.0,-100.00,SSW,201,6.0,10.0,78,0.00,,,0.02,1.000000,,2013-04-18 09:22:00,
2013-04-18 02:53:00,30.0,25.0,-100.00,SSW,199,6.0,8.0,80,0.00,,,0.02,1.000000,,2013-04-18 09:53:00,
2013-04-18 03:03:00,30.0,25.0,-100.00,SSW,199,6.0,8.0,80,0.00,,,0.02,1.000000,,2013-04-18 10:03:00,
2013-04-18 03:12:00,30.0,25.0,-100.00,SSW,199,6.0,8.0,80,0.00,,,0.02,1.000000,,2013-04-18 10:12:00,
2013-04-18 03:22:00,30.0,25.0,-100.00,SSW,199,6.0,8.0,80,0.00,,,0.02,1.000000,,2013-04-18 10:22:00,
2013-04-18 03:52:00,31.0,26.0,-100.00,SSW,206,5.0,9.0,82,0.00,,,0.02,1.000000,,2013-04-18 10:52:00,
2013-04-18 04:02:00,31.0,26.0,-100.00,SSW,206,5.0,9.0,82,0.00,,,0.02,1.000000,,2013-04-18 11:02:00,
2013-04-18 04:12:00,31.0,26.0,-100.00,SSW,206,5.0,9.0,82,0.00,,,0.02,1.000000,,2013-04-18 11:12:00,
2013-04-18 04:22:00,31.0,26.0,-100.00,SSW,206,5.0,9.0,82,0.00,,,0.02,1.000000,,2013-04-18 11:22:00,
2013-04-18 04:42:00,31.0,26.0,-100.00,SSW,207,6.0,9.0,81,0.00,,,0.02,1.000000,,2013-04-18 11:42:00,
2013-04-18 04:52:00,31.0,26.0,-100.00,SSW,207,6.0,9.0,81,0.00,,,0.02,1.000000,,2013-04-18 11:52:00,
2013-04-18 05:02:00,31.0,26.0,-100.00,SSW,207,6.0,9.0,81,0.00,,,0.02,1.000000,,2013-04-18 12:02:00,
2013-04-18 05:12:00,31.0,26.0,-100.00,SSW,207,6.0,9.0,81,0.00,,,0.02,1.000000,,2013-04-18 12:12:00,
2013-04-18 05:21:00,31.0,26.0,-100.00,SSW,207,6.0,9.0,81,0.00,,,0.02,1.000000,,2013-04-18 12:21:00,
2013-04-18 05:52:00,31.0,26.0,-100.00,SSW,201,6.0,11.0,82,0.00,,,0.02,1.000000,,2013-04-18 12:52:00,
2013-04-18 06:02:00,31.0,26.0,-100.00,SSW,201,6.0,11.0,82,0.00,,,0.02,1.000000,,2013-04-18 13:02:00,
2013-04-18 06:12:00,31.0,26.0,-100.00,SSW,201,6.0,11.0,82,0.00,,,0.02,1.000000,,2013-04-18 13:12:00,
2013-04-18 06:22:00,31.0,26.0,-100.00,SSW,201,6.0,11.0,82,0.00,,,0.02,1.000000,,2013-04-18 13:22:00,
2013-04-18 06:42:00,30.0,26.0,-100.00,SSW,197,5.0,8.0,84,0.00,,,0.02,1.000000,,2013-04-18 13:42:00,
2013-04-18 06:53:00,30.0,26.0,-100.00,SSW,197,5.0,8.0,84,0.00,,,0.02,1.000000,,2013-04-18 13:53:00,
2013-04-18 07:02:00,30.0,26.0,-100.00,SSW,197,5.0,8.0,84,0.00,,,0.02,1.000000,,2013-04-18 14:02:00,
2013-04-18 07:12:00,30.0,26.0,-100.00,SSW,197,5.0,8.0,84,0.00,,,0.02,1.000000,,2013-04-18 14:12:00,
2013-04-18 07:22:00,30.0,26.0,-100.00,SSW,197,5.0,8.0,84,0.00,,,0.02,1.000000,,2013-04-18 14:22:00,
2013-04-18 07:52:00,33.0,26.0,-100.00,SSW,200,6.0,11.0,76,0.00,,,-99.99,71.000000,,2013-04-18 14:52:00,
2013-04-18 08:02:00,33.0,26.0,-100.00,SSW,200,6.0,11.0,76,0.00,,,-99.99,71.000000,,2013-04-18 15:02:00,
2013-04-18 08:12:00,33.0,26.0,-100.00,SSW,200,6.0,11.0,76,0.00,,,-99.99,71.000000,,2013-04-18 15:12:00,
2013-04-18 08:22:00,33.0,26.0,-100.00,SSW,200,6.0,11.0,76,0.00,,,-99.99,71.000000,,2013-04-18 15:22:00,
2013-04-18 08:53:00,36.0,26.0,-100.00,South,190,5.0,11.0,68,0.00,,,0.01,247.000000,,2013-04-18 15:53:00,
2013-04-18 09:03:00,36.0,26.0,-100.00,South,190,5.0,11.0,68,0.00,,,0.01,247.000000,,2013-04-18 16:03:00,
2013-04-18 09:13:00,36.0,26.0,-100.00,South,190,5.0,11.0,68,0.00,,,0.01,247.000000,,2013-04-18 16:13:00,
2013-04-18 09:22:00,36.0,26.0,-100.00,South,190,5.0,11.0,68,0.00,,,0.01,247.000000,,2013-04-18 16:22:00,
2013-04-18 09:43:00,41.0,29.0,-100.00,SSW,200,5.0,9.0,61,0.00,,,0.00,434.000000,,2013-04-18 16:43:00,
2013-04-18 09:53:00,41.0,29.0,-100.00,SSW,200,5.0,9.0,61,0.00,,,0.00,434.000000,,2013-04-18 16:53:00,
2013-04-18 10:02:00,41.0,29.0,-100.00,SSW,200,5.0,9.0,61,0.00,,,0.00,434.000000,,2013-04-18 17:02:00,
2013-04-18 10:12:00,41.0,29.0,-100.00,SSW,200,5.0,9.0,61,0.00,,,0.00,434.000000,,2013-04-18 17:12:00,
2013-04-18 10:21:00,41.0,29.0,-100.00,SSW,200,5.0,9.0,61,0.00,,,0.00,434.000000,,2013-04-18 17:21:00,
2013-04-18 10:43:00,45.0,29.0,-100.00,SSW,204,4.0,9.0,54,0.00,,,0.00,605.000000,,2013-04-18 17:43:00,
2013-04-18 10:52:00,45.0,29.0,-100.00,SSW,204,4.0,9.0,54,0.00,,,0.00,605.000000,,2013-04-18 17:52:00,
2013-04-18 11:02:00,45.0,29.0,-100.00,SSW,204,4.0,9.0,54,0.00,,,0.00,605.000000,,2013-04-18 18:02:00,
2013-04-18 11:12:00,45.0,29.0,-100.00,SSW,204,4.0,9.0,54,0.00,,,0.00,605.000000,,2013-04-18 18:12:00,
2013-04-18 11:52:00,50.0,32.0,-100.00,SW,222,5.0,8.0,49,0.00,,,0.00,746.000000,,2013-04-18 18:52:00,
2013-04-18 12:02:00,50.0,32.0,-100.00,SW,222,5.0,8.0,49,0.00,,,0.00,746.000000,,2013-04-18 19:02:00,
2013-04-18 12:12:00,50.0,32.0,-100.00,SW,222,5.0,8.0,49,0.00,,,0.00,746.000000,,2013-04-18 19:12:00,
2013-04-18 12:22:00,50.0,32.0,-100.00,SW,222,5.0,8.0,49,0.00,,,0.00,746.000000,,2013-04-18 19:22:00,
2013-04-18 12:52:00,54.0,32.0,-100.00,North,355,4.0,9.0,43,0.00,,,0.00,850.000000,,2013-04-18 19:52:00,
2013-04-18 13:02:00,54.0,32.0,-100.00,North,355,4.0,9.0,43,0.00,,,0.00,850.000000,,2013-04-18 20:02:00,
2013-04-18 13:12:00,54.0,32.0,-100.00,North,355,4.0,9.0,43,0.00,,,0.00,850.000000,,2013-04-18 20:12:00,
2013-04-18 13:22:00,54.0,32.0,-100.00,North,355,4.0,9.0,43,0.00,,,0.00,850.000000,,2013-04-18 20:22:00,
2013-04-18 13:52:00,57.0,32.0,-100.00,North,4,3.0,11.0,39,0.00,,,0.00,862.000000,,2013-04-18 20:52:00,
2013-04-18 14:02:00,57.0,32.0,-100.00,North,4,3.0,11.0,39,0.00,,,0.00,862.000000,,2013-04-18 21:02:00,
2013-04-18 14:12:00,57.0,32.0,-100.00,North,4,3.0,11.0,39,0.00,,,0.00,862.000000,,2013-04-18 21:12:00,
2013-04-18 14:22:00,57.0,32.0,-100.00,North,4,3.0,11.0,39,0.00,,,0.00,862.000000,,2013-04-18 21:22:00,
2013-04-18 14:43:00,58.0,35.0,-100.00,NNW,341,4.0,12.0,42,0.00,,,0.00,754.000000,,2013-04-18 21:43:00,
2013-04-18 14:53:00,58.0,35.0,-100.00,NNW,341,4.0,12.0,42,0.00,,,0.00,754.000000,,2013-04-18 21:53:00,
2013-04-18 15:02:00,58.0,35.0,-100.00,NNW,341,4.0,12.0,42,0.00,,,0.00,754.000000,,2013-04-18 22:02:00,
2013-04-18 15:12:00,58.0,35.0,-100.00,NNW,341,4.0,12.0,42,0.00,,,0.00,754.000000,,2013-04-18 22:12:00,
2013-04-18 15:22:00,58.0,35.0,-100.00,NNW,341,4.0,12.0,42,0.00,,,0.00,754.000000,,2013-04-18 22:22:00,
2013-04-18 15:52:00,57.0,35.0,-100.00,North,350,5.0,12.0,43,0.00,,,0.00,656.000000,,2013-04-18 22:52:00,
2013-04-18 16:03:00,57.0,35.0,-100.00,North,350,5.0,12.0,43,0.00,,,0.00,656.000000,,2013-04-18 23:03:00,
2013-04-18 16:11:00,57.0,35.0,-100.00,North,350,5.0,12.0,43,0.00,,,0.00,656.000000,,2013-04-18 23:11:00,
2013-04-18 16:21:00,57.0,35.0,-100.00,North,350,5.0,12.0,43,0.00,,,0.00,656.000000,,2013-04-18 23:21:00,
2013-04-18 16:52:00,56.0,36.0,-100.00,North,10,3.0,8.0,47,0.00,,,0.00,466.000000,,2013-04-18 23:52:00,
2013-04-18 17:01:00,56.0,36.0,-100.00,North,10,3.0,8.0,47,0.00,,,0.00,466.000000,,2013-04-19 00:01:00,
2013-04-18 17:12:00,56.0,36.0,-100.00,North,10,3.0,8.0,47,0.00,,,0.00,466.000000,,2013-04-19 00:12:00,
2013-04-18 17:21:00,56.0,36.0,-100.00,North,10,3.0,8.0,47,0.00,,,0.00,466.000000,,2013-04-19 00:21:00,
2013-04-18 17:52:00,57.0,36.0,-100.00,NNE,15,3.0,8.0,46,0.00,,,0.00,458.000000,,2013-04-19 00:52:00,
2013-04-18 18:01:00,57.0,36.0,-100.00,NNE,15,3.0,8.0,46,0.00,,,0.00,458.000000,,2013-04-19 01:01:00,
2013-04-18 18:11:00,57.0,36.0,-100.00,NNE,15,3.0,8.0,46,0.00,,,0.00,458.000000,,2013-04-19 01:11:00,
2013-04-18 18:21:00,57.0,36.0,-100.00,NNE,15,3.0,8.0,46,0.00,,,0.00,458.000000,,2013-04-19 01:21:00,
2013-04-18 18:42:00,53.0,36.0,-100.00,North,1,4.0,10.0,52,0.00,,,0.00,286.000000,,2013-04-19 01:42:00,
2013-04-18 18:52:00,53.0,36.0,-100.00,North,1,4.0,10.0,52,0.00,,,0.00,286.000000,,2013-04-19 01:52:00,
2013-04-18 19:01:00,53.0,36.0,-100.00,North,1,4.0,10.0,52,0.00,,,0.00,286.000000,,2013-04-19 02:01:00,
2013-04-18 19:11:00,53.0,36.0,-100.00,North,1,4.0,10.0,52,0.00,,,0.00,286.000000,,2013-04-19 02:11:00,
2013-04-18 19:21:00,53.0,36.0,-100.00,North,1,4.0,10.0,52,0.00,,,0.00,286.000000,,2013-04-19 02:21:00,
2013-04-18 19:52:00,47.0,36.0,-100.00,NE,50,1.0,9.0,65,0.00,,,0.00,81.000000,,2013-04-19 02:52:00,
2013-04-18 20:01:00,47.0,36.0,-100.00,NE,50,1.0,9.0,65,0.00,,,0.00,81.000000,,2013-04-19 03:01:00,
2013-04-18 20:11:00,47.0,36.0,-100.00,NE,50,1.0,9.0,65,0.00,,,0.00,81.000000,,2013-04-19 03:11:00,
2013-04-18 20:21:00,47.0,36.0,-100.00,NE,50,1.0,9.0,65,0.00,,,0.00,81.000000,,2013-04-19 03:21:00,
2013-04-18 20:53:00,45.0,36.0,-100.00,SSW,196,4.0,8.0,70,0.00,,,0.00,8.000000,,2013-04-19 03:53:00,
2013-04-18 21:03:00,45.0,36.0,-100.00,SSW,196,4.0,8.0,70,0.00,,,0.00,8.000000,,2013-04-19 04:03:00,
2013-04-18 21:13:00,45.0,36.0,-100.00,SSW,196,4.0,8.0,70,0.00,,,0.00,8.000000,,2013-04-19 04:13:00,
2013-04-18 21:23:00,45.0,36.0,-100.00,SSW,196,4.0,8.0,70,0.00,,,0.00,8.000000,,2013-04-19 04:23:00,
2013-04-18 21:43:00,43.0,36.0,-100.00,South,188,6.0,9.0,75,0.00,,,0.00,1.000000,,2013-04-19 04:43:00,
2013-04-18 21:52:00,43.0,36.0,-100.00,South,188,6.0,9.0,75,0.00,,,0.00,1.000000,,2013-04-19 04:52:00,
2013-04-18 22:03:00,43.0,36.0,-100.00,South,188,6.0,9.0,75,0.00,,,0.00,1.000000,,2013-04-19 05:03:00,
2013-04-18 22:11:00,43.0,36.0,-100.00,South,188,6.0,9.0,75,0.00,,,0.00,1.000000,,2013-04-19 05:11:00,
2013-04-18 22:22:00,43.0,36.0,-100.00,South,188,6.0,9.0,75,0.00,,,0.00,1.000000,,2013-04-19 05:22:00,
2013-04-18 22:42:00,42.0,36.0,-100.00,SSW,201,9.0,14.0,79,0.00,,,0.00,1.000000,,2013-04-19 05:42:00,
2013-04-18 22:52:00,42.0,36.0,-100.00,SSW,201,9.0,14.0,79,0.00,,,0.00,1.000000,,2013-04-19 05:52:00,
2013-04-18 23:01:00,42.0,36.0,-100.00,SSW,201,9.0,14.0,79,0.00,,,0.00,1.000000,,2013-04-19 06:01:00,
2013-04-18 23:11:00,42.0,36.0,-100.00,SSW,201,9.0,14.0,79,0.00,,,0.00,1.000000,,2013-04-19 06:11:00,
2013-04-18 23:21:00,42.0,36.0,-100.00,SSW,201,9.0,14.0,79,0.00,,,0.00,1.000000,,2013-04-19 06:21:00,
2013-04-18 23:53:00,41.0,35.0,-100.00,SSW,206,9.0,15.0,80,0.00,,,-99.99,1.000000,,2013-04-19 06:53:00,